Conrad, Iowa
Current Conditions -  °F | °C
As of 3:14 PM on Wednesday 26 Nov 2014 (Local Time) from KMIW Reporting Station
Light Snow Light Snow  
Wind Chill: 20°   Ceiling: 2000
Heat Index: 30°   Visibility: 1.2mi
Dew Point: 28°   Wind: 13mph
Humidity: 92%   Direction: 30°NNE
Pressure: 30.08"   Gusts: NA
Location:  42.22°N, 92.87°W
Report Text: KMIW 262114Z AUTO 03011KT 1 1/4SM -SN BR FEW006 BKN020 OVC026 M01/M02 A3008 RMK AO2 P0000 T10111022
Loading
Personal Weather Stations






























Interactive Weather Map New forecast layout! Learn more

10-Day Weather Forecast

Advertisements
Track Severe Weather on mobile